Aérodrome :
LOGIN :

S'inscrire | Disclaimer

   EN    FR    IT 

 










Légende :    VFR   VFR Marginal   IFR   IFR Intensif   IFR Très Intensif
Visi : 
Plafond : 
>= 8 km
>= 3000ft
5 à 8 km
1000 à 3000 ft
1500m à 5 km
500 à 1000 ft
800 à 1500m
200 à 500 ft
< 800m
< 200 ft
Symboles :   Orages  Brouillard  Fortes neiges  Fortes précipitations  Vent > 20 kt
SIGMETs :   Divers  Orages  Givrage  Turbulence  Onde Orograph.  Cendres Volcan.






- Altitude de l'aérodrome : 52 ft
- Code IATA : RNN


EKRN - Bornholm Ronne

DERNIER METAR :
  • 130850Z AUTO 03002KT 9999 -RA SCT011/// BKN024/// OVC049/// 18/16 Q1008

METARs EXPIRÉS :
  • 130820Z AUTO 02004KT 360V060 9999 -RA FEW010/// OVC062/// 18/17 Q1007
  • 130750Z AUTO 35005KT 9999 -RA OVC066/// 18/17 Q1007
  • 130720Z AUTO 01005KT 9999 RA OVC071/// 18/17 Q1007
  • 130650Z AUTO 01005KT 9999 -RA OVC064/// 17/16 Q1008
  • 130620Z AUTO 04008KT 9999 RA FEW010/// OVC066/// 17/16 Q1008
  • 130550Z AUTO 04007KT 9999 RA OVC068/// 17/17 Q1007
  • 130520Z AUTO 05007KT 9999 RA OVC074/// 17/17 Q1007
  • 130450Z AUTO 05006KT 9999 -RA OVC082/// 17/17 Q1007
  • 130420Z AUTO 04004KT 9999 +RA OVC067/// 17/16 Q1008

TAF TAF EKRN
Valide du 13 à 09h jusqu'au 13 à 18h UTC


130801Z 1309/1318 10008KT 9999 BKN040
TEMPO 1309/1318 4000 SHRA BKN005 SCT050CB
BECMG 1311/1314 24015KT



MET'MAP, la Météo Aéronautique d'un coup d'oeil ! - Copyright ORBIFLY Décembre 2007 - Disclaimer

ORBIFLY MET'MAP TEAM :

Programmation & Développement : Alexandra Zaïnal
Sur une idée originale de : Baudouin d'Aumeries
Soutien technique & logistique : Manuel Goepfert
Assistance : Marc-Olivier Méhu




SOURCES & CREDITS :

   NOAA